関西国際空港の過去48時間の天気

関西国際空港 (Kansai intl)

現在時刻: 1/22 03:25 JST (1/21 18:25 UTC) 以下の時間は現地時間です。

過去48時間のMETAR気象情報
時間 風向 風速(m/s) 視程 気温(℃) 湿度(%) 気圧(hPa) 天気現象
22 03:00 不定 1 10km以上 6 70 1019
22 02:30 2 10km以上 6 70 1019
22 02:00 北東 3 10km以上 7 70 1019
22 01:30 東北東 5 10km以上 5 75 1019
22 01:00 東北東 4 10km以上 6 70 1019
22 00:30 東北東 5 10km以上 6 70 1019
22 00:00 東北東 5 10km以上 6 65 1020
21 23:30 5 10km以上 7 66 1020
21 23:00 5 10km以上 7 53 1020
21 22:30 7 10km以上 8 53 1020
21 22:00 6 10km以上 8 49 1020
21 21:30 7 10km以上 8 53 1020
21 21:00 7 10km以上 8 57 1021
21 20:30 7 10km以上 9 53 1021
21 20:00 6 10km以上 8 57 1021
21 19:30 8 10km以上 9 62 1021
21 19:00 北東 6 10km以上 9 62 1020
21 18:30 5 10km以上 9 62 1020
21 18:00 5 10km以上 10 58 1020
21 17:30 北西 5 10km以上 10 62 1020
21 17:00 北西 6 10km以上 9 62 1019
21 16:48 北西 5 10km以上 9 62 1019
21 16:30 不定 1 10km以上 9 62 1019
21 16:00 南南西 2 10km以上 9 66 1019
21 15:30 南南西 3 10km以上 10 62 1019
21 15:00 南南西 3 10km以上 10 54 1019
21 14:30 2 10km以上 10 58 1019
21 14:00 西 2 10km以上 10 54 1019
21 13:30 西北西 2 10km以上 10 54 1019
21 13:00 西 3 10km以上 10 62 1020
21 12:30 西 3 10km以上 10 71 1020
21 12:00 西 3 10km以上 9 62 1020
21 11:30 西南西 3 10km以上 10 62 1020
21 11:00 西 3 10km以上 9 66 1020
21 10:30 南西 2 10km以上 9 76 1021
21 10:00 南南西 3 10km以上 8 81 1021
21 09:30 不定 1 10km以上 8 81 1021
21 09:00 南南西 2 10km以上 7 81 1021
21 08:30 南西 2 10km以上 7 81 1021
21 08:00 2 10km以上 6 87 1020
21 07:30 2 10km以上 5 81 1020
21 07:00 南南東 2 10km以上 5 87 1019
21 06:30 南南東 2 10km以上 6 81 1019
21 06:00 東南東 1 10km以上 6 81 1019
21 05:30 2 10km以上 5 87 1019
21 05:00 2 10km以上 5 87 1019
21 04:30 2 10km以上 5 87 1019
RJBB 211800Z AUTO VRB01KT 9999 NSC 06/01 Q1019 NOSIG
RJBB 211730Z AUTO 08003KT 9999 NSC 06/01 Q1019 NOSIG
RJBB 211700Z AUTO 05006KT 9999 NCD 07/02 Q1019 NOSIG
RJBB 211630Z AUTO 06009KT 9999 NSC 05/01 Q1019 NOSIG
RJBB 211600Z AUTO 06008KT 9999 NSC 06/01 Q1019 NOSIG
RJBB 211530Z AUTO 06009KT 9999 FEW038 06/01 Q1019 NOSIG
RJBB 211500Z AUTO 06009KT 9999 BKN038 06/00 Q1020 NOSIG
RJBB 211430Z AUTO 01009KT 9999 NCD 07/01 Q1020 NOSIG
RJBB 211400Z AUTO 01010KT 9999 NSC 07/M02 Q1020 NOSIG
RJBB 211330Z 36013KT CAVOK 08/M01 Q1020 NOSIG
RJBB 211300Z 01012KT CAVOK 08/M02 Q1020 NOSIG
RJBB 211230Z 01013KT CAVOK 08/M01 Q1020 NOSIG
RJBB 211200Z 01013KT CAVOK 08/00 Q1021 NOSIG
RJBB 211130Z 01014KT CAVOK 09/M00 Q1021 NOSIG
RJBB 211100Z 01012KT CAVOK 08/M00 Q1021 NOSIG
RJBB 211030Z 36015KT 9999 FEW050 BKN/// 09/02 Q1021 NOSIG
RJBB 211000Z 04012KT 9999 FEW050 BKN/// 09/02 Q1020 NOSIG
RJBB 210930Z 01009KT 9999 FEW050 SCT/// 09/02 Q1020 NOSIG
RJBB 210900Z 36009KT 9999 FEW040 SCT050 10/02 Q1020 NOSIG
RJBB 210830Z 31010KT 9999 FEW040 SCT050 10/03 Q1020 BECMG 34008KT
RJBB 210800Z 31011KT 9999 FEW040 SCT050 09/02 Q1019 BECMG 34008KT
RJBB 210748Z 32010KT 9999 FEW040 SCT050 09/02 Q1019 RMK 1CU040 3SC050 A3010
RJBB 210730Z VRB02KT 9999 FEW050 09/02 Q1019 BECMG 34008KT
RJBB 210700Z 20004KT 150V280 9999 FEW060 09/03 Q1019 NOSIG
RJBB 210630Z 21006KT 170V260 9999 FEW030 10/03 Q1019 NOSIG
RJBB 210600Z 20005KT 140V260 9999 FEW030 10/01 Q1019 NOSIG
RJBB 210530Z 19004KT 140V250 9999 FEW025 10/02 Q1019 NOSIG
RJBB 210500Z 27003KT 220V290 9999 FEW025 10/01 Q1019 NOSIG
RJBB 210430Z 30004KT 210V350 9999 FEW025 10/01 Q1019 NOSIG
RJBB 210400Z 28006KT 9999 FEW025 10/03 Q1020 NOSIG
RJBB 210330Z 27006KT 9999 FEW020 SCT/// 10/05 Q1020 NOSIG
RJBB 210300Z 27005KT 240V300 9999 FEW020 BKN/// 09/02 Q1020 NOSIG
RJBB 210230Z 25006KT 9999 FEW020 BKN/// 10/03 Q1020 NOSIG
RJBB 210200Z 27006KT 9999 FEW020 BKN/// 09/03 Q1020 NOSIG
RJBB 210130Z 23004KT 170V280 9999 FEW020 BKN/// 09/05 Q1021 NOSIG
RJBB 210100Z 20005KT 150V220 9999 FEW020 SCT/// 08/05 Q1021 NOSIG
RJBB 210030Z VRB01KT 9999 FEW025 SCT/// 08/05 Q1021 NOSIG
RJBB 210000Z 20003KT 130V240 9999 FEW025 SCT/// 07/04 Q1021 NOSIG
RJBB 202330Z 22004KT 190V260 9999 FEW025 07/04 Q1021 NOSIG
RJBB 202300Z 19003KT 9999 FEW030 06/04 Q1020 NOSIG
RJBB 202230Z 18003KT 9999 FEW020 SCT060 05/02 Q1020 NOSIG
RJBB 202200Z 15003KT 9999 FEW020 05/03 Q1019 NOSIG
RJBB 202130Z 15004KT 9999 FEW030 06/03 Q1019 NOSIG
RJBB 202100Z 12002KT 9999 FEW030 06/03 Q1019 NOSIG
RJBB 202030Z AUTO 09003KT 9999 NCD 05/03 Q1019 NOSIG
RJBB 202000Z AUTO 08003KT 9999 NCD 05/03 Q1019 NOSIG
RJBB 201930Z AUTO 08003KT 9999 NCD 05/03 Q1019 NOSIG